Jackson, Missouri
Current Conditions -  °F | °C
As of 8:53 AM on Wednesday 22 Oct 2014 (Local Time) from KCGI Reporting Station
Clear Clear  
Wind Chill: 50°   Ceiling: Unl
Heat Index: 50°   Visibility: 10mi
Dew Point: 44°   Wind: 7mph
Humidity: 80%   Direction: 70°ENE
Pressure: 30.3"   Gusts: NA
Location:  37.38°N, 89.67°W
Report Text: KCGI 221353Z 07006KT 10SM CLR 10/07 A3030 RMK AO2 SLP260 T01000067
Loading
Personal Weather Stations






























Interactive Weather Map
Tropical Storm Tracking
New forecast layout! Learn more

10-Day Weather Forecast

Advertisements
Track Severe Weather on mobile